sensor_id;sensor_type;location;lat;lon;timestamp;temperature;humidity
81902;DHT22;71369;50.796;3.290;2024-01-30T06:35:40;10.20;99.90
81902;DHT22;71369;50.796;3.290;2024-01-30T06:38:27;10.20;99.90
81902;DHT22;71369;50.796;3.290;2024-01-30T06:44:34;10.30;99.90
81902;DHT22;71369;50.796;3.290;2024-01-30T06:47:09;10.30;99.90
81902;DHT22;71369;50.796;3.290;2024-01-30T06:50:28;10.40;99.90
81902;DHT22;71369;50.796;3.290;2024-01-30T06:52:58;10.30;99.90
81902;DHT22;71369;50.796;3.290;2024-01-30T06:55:32;10.30;99.90
81902;DHT22;71369;50.796;3.290;2024-01-30T07:00:46;10.30;99.90
81902;DHT22;71369;50.796;3.290;2024-01-30T07:03:44;10.40;99.90
81902;DHT22;71369;50.796;3.290;2024-01-30T07:15:12;10.40;99.90
81902;DHT22;71369;50.796;3.290;2024-01-30T07:18:08;10.40;99.90
81902;DHT22;71369;50.796;3.290;2024-01-30T07:20:43;10.40;99.90
81902;DHT22;71369;50.796;3.290;2024-01-30T07:23:51;10.40;99.90
81902;DHT22;71369;50.796;3.290;2024-01-30T07:26:49;10.40;99.90
81902;DHT22;71369;50.796;3.290;2024-01-30T07:36:04;10.60;99.90
81902;DHT22;71369;50.796;3.290;2024-01-30T07:38:56;10.60;99.90
81902;DHT22;71369;50.796;3.290;2024-01-30T07:41:47;10.60;99.90
81902;DHT22;71369;50.796;3.290;2024-01-30T07:44:48;10.60;99.90
81902;DHT22;71369;50.796;3.290;2024-01-30T07:54:23;10.50;99.90
81902;DHT22;71369;50.796;3.290;2024-01-30T08:00:30;10.50;99.90
81902;DHT22;71369;50.796;3.290;2024-01-30T08:03:33;10.50;99.90
81902;DHT22;71369;50.796;3.290;2024-01-30T08:06:36;10.60;99.90
81902;DHT22;71369;50.796;3.290;2024-01-30T08:14:15;10.70;99.90
81902;DHT22;71369;50.796;3.290;2024-01-30T08:16:40;10.70;99.90
81902;DHT22;71369;50.796;3.290;2024-01-30T08:19:06;10.70;99.90
81902;DHT22;71369;50.796;3.290;2024-01-30T08:21:32;10.70;99.90
81902;DHT22;71369;50.796;3.290;2024-01-30T08:24:03;10.80;99.90
81902;DHT22;71369;50.796;3.290;2024-01-30T08:26:29;10.80;99.90
81902;DHT22;71369;50.796;3.290;2024-01-30T08:28:55;10.80;99.90
81902;DHT22;71369;50.796;3.290;2024-01-30T08:31:21;10.80;99.90
81902;DHT22;71369;50.796;3.290;2024-01-30T08:33:47;10.80;99.90
81902;DHT22;71369;50.796;3.290;2024-01-30T08:36:13;10.80;99.90
81902;DHT22;71369;50.796;3.290;2024-01-30T08:38:38;10.90;99.90
81902;DHT22;71369;50.796;3.290;2024-01-30T08:41:04;10.80;99.90
81902;DHT22;71369;50.796;3.290;2024-01-30T08:43:31;10.80;99.90
81902;DHT22;71369;50.796;3.290;2024-01-30T08:46:01;10.80;99.90
81902;DHT22;71369;50.796;3.290;2024-01-30T08:48:27;10.90;99.90
81902;DHT22;71369;50.796;3.290;2024-01-30T08:50:53;10.90;99.90
81902;DHT22;71369;50.796;3.290;2024-01-30T08:53:19;10.90;99.90
81902;DHT22;71369;50.796;3.290;2024-01-30T08:55:44;11.00;99.90
81902;DHT22;71369;50.796;3.290;2024-01-30T08:58:10;11.10;99.90
81902;DHT22;71369;50.796;3.290;2024-01-30T09:00:36;11.20;99.90
81902;DHT22;71369;50.796;3.290;2024-01-30T09:03:03;11.10;99.90
81902;DHT22;71369;50.796;3.290;2024-01-30T09:05:29;11.00;99.90
81902;DHT22;71369;50.796;3.290;2024-01-30T09:07:54;11.00;99.90
81902;DHT22;71369;50.796;3.290;2024-01-30T09:10:20;10.80;99.90
81902;DHT22;71369;50.796;3.290;2024-01-30T09:12:47;10.70;99.90
81902;DHT22;71369;50.796;3.290;2024-01-30T09:15:12;10.70;99.90
81902;DHT22;71369;50.796;3.290;2024-01-30T09:17:38;10.70;99.90
81902;DHT22;71369;50.796;3.290;2024-01-30T09:20:05;10.80;99.90
81902;DHT22;71369;50.796;3.290;2024-01-30T09:22:30;10.90;99.90
81902;DHT22;71369;50.796;3.290;2024-01-30T09:24:57;11.00;99.90
81902;DHT22;71369;50.796;3.290;2024-01-30T09:27:23;10.80;99.90
81902;DHT22;71369;50.796;3.290;2024-01-30T09:29:49;10.60;99.90
81902;DHT22;71369;50.796;3.290;2024-01-30T09:32:15;10.40;99.90
81902;DHT22;71369;50.796;3.290;2024-01-30T09:34:41;10.30;99.90
81902;DHT22;71369;50.796;3.290;2024-01-30T09:37:07;10.20;99.90
81902;DHT22;71369;50.796;3.290;2024-01-30T09:39:33;10.20;99.90
81902;DHT22;71369;50.796;3.290;2024-01-30T09:42:25;10.20;99.90
81902;DHT22;71369;50.796;3.290;2024-01-30T09:44:53;10.20;99.90
81902;DHT22;71369;50.796;3.290;2024-01-30T09:47:19;10.20;99.90
81902;DHT22;71369;50.796;3.290;2024-01-30T09:49:45;10.30;99.90
81902;DHT22;71369;50.796;3.290;2024-01-30T09:52:11;10.50;99.90
81902;DHT22;71369;50.796;3.290;2024-01-30T09:54:38;10.50;99.90
81902;DHT22;71369;50.796;3.290;2024-01-30T09:57:04;10.50;99.90
81902;DHT22;71369;50.796;3.290;2024-01-30T09:59:31;10.40;99.90
81902;DHT22;71369;50.796;3.290;2024-01-30T10:01:57;10.30;99.90
81902;DHT22;71369;50.796;3.290;2024-01-30T10:04:23;10.30;99.90
81902;DHT22;71369;50.796;3.290;2024-01-30T10:06:49;10.40;99.90
81902;DHT22;71369;50.796;3.290;2024-01-30T10:09:16;10.40;99.90
81902;DHT22;71369;50.796;3.290;2024-01-30T10:11:42;10.50;99.90
81902;DHT22;71369;50.796;3.290;2024-01-30T10:14:07;10.60;99.90
81902;DHT22;71369;50.796;3.290;2024-01-30T10:16:34;10.80;99.90
81902;DHT22;71369;50.796;3.290;2024-01-30T10:19:00;11.20;99.90
81902;DHT22;71369;50.796;3.290;2024-01-30T10:21:26;11.40;99.90
81902;DHT22;71369;50.796;3.290;2024-01-30T10:23:52;11.20;99.90
81902;DHT22;71369;50.796;3.290;2024-01-30T10:26:18;11.30;99.90
81902;DHT22;71369;50.796;3.290;2024-01-30T10:28:43;11.70;99.90
81902;DHT22;71369;50.796;3.290;2024-01-30T10:31:09;11.70;99.90
81902;DHT22;71369;50.796;3.290;2024-01-30T10:33:35;11.20;99.90
81902;DHT22;71369;50.796;3.290;2024-01-30T10:36:04;11.10;99.90
81902;DHT22;71369;50.796;3.290;2024-01-30T10:38:32;11.00;99.90
81902;DHT22;71369;50.796;3.290;2024-01-30T10:40:59;11.10;99.90
81902;DHT22;71369;50.796;3.290;2024-01-30T10:43:33;11.00;99.90
81902;DHT22;71369;50.796;3.290;2024-01-30T10:46:16;11.00;99.90
81902;DHT22;71369;50.796;3.290;2024-01-30T10:49:02;10.90;99.90
81902;DHT22;71369;50.796;3.290;2024-01-30T10:51:29;10.80;99.90
81902;DHT22;71369;50.796;3.290;2024-01-30T10:53:56;10.90;99.90
81902;DHT22;71369;50.796;3.290;2024-01-30T10:56:23;10.90;99.90
81902;DHT22;71369;50.796;3.290;2024-01-30T10:58:52;11.00;99.90
81902;DHT22;71369;50.796;3.290;2024-01-30T11:01:21;11.00;99.90
81902;DHT22;71369;50.796;3.290;2024-01-30T11:03:53;10.90;99.90
81902;DHT22;71369;50.796;3.290;2024-01-30T11:06:22;10.80;99.90
81902;DHT22;71369;50.796;3.290;2024-01-30T11:09:05;10.70;99.90
81902;DHT22;71369;50.796;3.290;2024-01-30T11:11:57;10.80;99.90
81902;DHT22;71369;50.796;3.290;2024-01-30T11:14:27;10.70;99.90
81902;DHT22;71369;50.796;3.290;2024-01-30T11:16:57;10.80;99.90
81902;DHT22;71369;50.796;3.290;2024-01-30T11:19:24;10.80;99.90
81902;DHT22;71369;50.796;3.290;2024-01-30T11:21:54;10.70;99.90
81902;DHT22;71369;50.796;3.290;2024-01-30T11:24:25;10.60;99.90
81902;DHT22;71369;50.796;3.290;2024-01-30T11:26:58;10.70;99.90
81902;DHT22;71369;50.796;3.290;2024-01-30T11:29:28;11.00;99.90
81902;DHT22;71369;50.796;3.290;2024-01-30T11:31:58;11.60;99.90
81902;DHT22;71369;50.796;3.290;2024-01-30T11:34:24;11.60;99.90
81902;DHT22;71369;50.796;3.290;2024-01-30T11:36:57;11.90;99.90
81902;DHT22;71369;50.796;3.290;2024-01-30T11:39:28;12.30;95.90
81902;DHT22;71369;50.796;3.290;2024-01-30T11:41:55;11.90;98.60
81902;DHT22;71369;50.796;3.290;2024-01-30T11:44:21;11.40;99.90
81902;DHT22;71369;50.796;3.290;2024-01-30T11:46:48;11.10;99.90
81902;DHT22;71369;50.796;3.290;2024-01-30T11:49:14;11.00;99.90
81902;DHT22;71369;50.796;3.290;2024-01-30T11:51:40;11.00;99.90
81902;DHT22;71369;50.796;3.290;2024-01-30T11:54:07;10.90;99.90
81902;DHT22;71369;50.796;3.290;2024-01-30T11:56:33;10.90;99.90
81902;DHT22;71369;50.796;3.290;2024-01-30T11:58:58;10.90;99.90
81902;DHT22;71369;50.796;3.290;2024-01-30T12:01:26;10.70;99.90
81902;DHT22;71369;50.796;3.290;2024-01-30T12:03:52;10.60;99.90
81902;DHT22;71369;50.796;3.290;2024-01-30T12:06:18;10.50;99.90
81902;DHT22;71369;50.796;3.290;2024-01-30T12:08:56;10.40;99.90
81902;DHT22;71369;50.796;3.290;2024-01-30T12:11:23;10.50;99.90
81902;DHT22;71369;50.796;3.290;2024-01-30T12:13:50;10.50;99.90
81902;DHT22;71369;50.796;3.290;2024-01-30T12:16:17;10.50;99.90
81902;DHT22;71369;50.796;3.290;2024-01-30T12:18:42;10.70;99.90
81902;DHT22;71369;50.796;3.290;2024-01-30T12:21:08;10.90;99.90
81902;DHT22;71369;50.796;3.290;2024-01-30T12:23:35;10.90;99.90
81902;DHT22;71369;50.796;3.290;2024-01-30T12:26:01;10.90;99.90
81902;DHT22;71369;50.796;3.290;2024-01-30T12:28:29;10.70;99.90
81902;DHT22;71369;50.796;3.290;2024-01-30T12:31:02;10.70;99.90
81902;DHT22;71369;50.796;3.290;2024-01-30T12:33:29;10.60;99.90
81902;DHT22;71369;50.796;3.290;2024-01-30T12:35:58;10.60;99.90
81902;DHT22;71369;50.796;3.290;2024-01-30T12:38:27;10.50;99.90
81902;DHT22;71369;50.796;3.290;2024-01-30T12:40:56;10.40;99.90
81902;DHT22;71369;50.796;3.290;2024-01-30T12:43:23;10.20;99.90
81902;DHT22;71369;50.796;3.290;2024-01-30T12:45:50;10.10;99.90
81902;DHT22;71369;50.796;3.290;2024-01-30T12:48:16;10.10;99.90
81902;DHT22;71369;50.796;3.290;2024-01-30T12:50:42;10.00;99.90
81902;DHT22;71369;50.796;3.290;2024-01-30T12:53:08;10.10;99.90
81902;DHT22;71369;50.796;3.290;2024-01-30T12:55:38;10.20;99.90
81902;DHT22;71369;50.796;3.290;2024-01-30T12:58:04;10.50;99.90
81902;DHT22;71369;50.796;3.290;2024-01-30T13:00:29;10.70;99.90
81902;DHT22;71369;50.796;3.290;2024-01-30T13:02:55;10.70;99.90
81902;DHT22;71369;50.796;3.290;2024-01-30T13:05:21;10.60;99.90
81902;DHT22;71369;50.796;3.290;2024-01-30T13:07:47;10.40;99.90
81902;DHT22;71369;50.796;3.290;2024-01-30T13:10:13;10.40;99.90
81902;DHT22;71369;50.796;3.290;2024-01-30T13:12:39;10.30;99.90
81902;DHT22;71369;50.796;3.290;2024-01-30T13:15:05;10.30;99.90
81902;DHT22;71369;50.796;3.290;2024-01-30T13:17:31;10.20;99.90
81902;DHT22;71369;50.796;3.290;2024-01-30T13:19:57;10.20;99.90
81902;DHT22;71369;50.796;3.290;2024-01-30T13:22:23;10.10;99.90
81902;DHT22;71369;50.796;3.290;2024-01-30T13:24:50;10.20;99.90
81902;DHT22;71369;50.796;3.290;2024-01-30T13:27:16;10.20;99.90
81902;DHT22;71369;50.796;3.290;2024-01-30T13:29:42;10.30;99.90
81902;DHT22;71369;50.796;3.290;2024-01-30T13:32:08;10.20;99.90
81902;DHT22;71369;50.796;3.290;2024-01-30T13:34:34;10.20;99.90
81902;DHT22;71369;50.796;3.290;2024-01-30T13:36:59;10.40;99.90
81902;DHT22;71369;50.796;3.290;2024-01-30T13:39:25;10.40;99.90
81902;DHT22;71369;50.796;3.290;2024-01-30T13:41:51;10.40;99.90
81902;DHT22;71369;50.796;3.290;2024-01-30T13:44:17;10.50;99.90
81902;DHT22;71369;50.796;3.290;2024-01-30T13:46:43;10.50;99.90
81902;DHT22;71369;50.796;3.290;2024-01-30T13:49:10;10.50;99.90
81902;DHT22;71369;50.796;3.290;2024-01-30T13:51:36;10.50;99.90
81902;DHT22;71369;50.796;3.290;2024-01-30T13:54:01;10.60;99.90
81902;DHT22;71369;50.796;3.290;2024-01-30T13:56:27;10.60;99.90
81902;DHT22;71369;50.796;3.290;2024-01-30T13:58:53;10.50;99.90
81902;DHT22;71369;50.796;3.290;2024-01-30T14:01:21;10.60;99.90
81902;DHT22;71369;50.796;3.290;2024-01-30T14:03:47;10.60;99.90
81902;DHT22;71369;50.796;3.290;2024-01-30T14:06:12;10.50;99.90
81902;DHT22;71369;50.796;3.290;2024-01-30T14:08:38;10.40;99.90
81902;DHT22;71369;50.796;3.290;2024-01-30T14:11:04;10.40;99.90
81902;DHT22;71369;50.796;3.290;2024-01-30T14:13:30;10.40;99.90
81902;DHT22;71369;50.796;3.290;2024-01-30T14:15:58;10.40;99.90
81902;DHT22;71369;50.796;3.290;2024-01-30T14:18:24;10.50;99.90
81902;DHT22;71369;50.796;3.290;2024-01-30T14:20:51;10.40;99.90
81902;DHT22;71369;50.796;3.290;2024-01-30T14:23:18;10.30;99.90
81902;DHT22;71369;50.796;3.290;2024-01-30T14:25:44;10.20;99.90
81902;DHT22;71369;50.796;3.290;2024-01-30T14:28:10;10.30;99.90
81902;DHT22;71369;50.796;3.290;2024-01-30T14:30:36;10.20;99.90
81902;DHT22;71369;50.796;3.290;2024-01-30T14:33:02;10.10;99.90
81902;DHT22;71369;50.796;3.290;2024-01-30T14:35:28;10.10;99.90
81902;DHT22;71369;50.796;3.290;2024-01-30T14:37:54;10.20;99.90
81902;DHT22;71369;50.796;3.290;2024-01-30T14:40:20;10.10;99.90
81902;DHT22;71369;50.796;3.290;2024-01-30T14:42:45;10.10;99.90
81902;DHT22;71369;50.796;3.290;2024-01-30T14:45:11;10.10;99.90
81902;DHT22;71369;50.796;3.290;2024-01-30T14:47:37;10.20;99.90
81902;DHT22;71369;50.796;3.290;2024-01-30T14:50:04;10.30;99.90
81902;DHT22;71369;50.796;3.290;2024-01-30T14:52:31;10.30;99.90
81902;DHT22;71369;50.796;3.290;2024-01-30T14:54:57;10.30;99.90
81902;DHT22;71369;50.796;3.290;2024-01-30T14:57:24;10.20;99.90
81902;DHT22;71369;50.796;3.290;2024-01-30T14:59:50;10.10;99.90
81902;DHT22;71369;50.796;3.290;2024-01-30T15:02:16;9.80;99.90
81902;DHT22;71369;50.796;3.290;2024-01-30T15:04:41;9.80;99.90
81902;DHT22;71369;50.796;3.290;2024-01-30T15:07:08;9.70;99.90
81902;DHT22;71369;50.796;3.290;2024-01-30T15:09:34;9.80;99.90
81902;DHT22;71369;50.796;3.290;2024-01-30T15:12:00;9.80;99.90
81902;DHT22;71369;50.796;3.290;2024-01-30T15:14:25;9.80;99.90
81902;DHT22;71369;50.796;3.290;2024-01-30T15:16:51;9.80;99.90
81902;DHT22;71369;50.796;3.290;2024-01-30T15:19:17;9.80;99.90
81902;DHT22;71369;50.796;3.290;2024-01-30T15:21:42;9.70;99.90
81902;DHT22;71369;50.796;3.290;2024-01-30T15:24:08;9.70;99.90
81902;DHT22;71369;50.796;3.290;2024-01-30T15:26:34;9.70;99.90
81902;DHT22;71369;50.796;3.290;2024-01-30T15:29:00;9.70;99.90
81902;DHT22;71369;50.796;3.290;2024-01-30T15:31:25;9.60;99.90
81902;DHT22;71369;50.796;3.290;2024-01-30T15:33:51;9.60;99.90
81902;DHT22;71369;50.796;3.290;2024-01-30T15:36:17;9.50;99.90
81902;DHT22;71369;50.796;3.290;2024-01-30T15:38:43;9.40;99.90
81902;DHT22;71369;50.796;3.290;2024-01-30T15:41:09;9.50;99.90
81902;DHT22;71369;50.796;3.290;2024-01-30T15:43:35;9.40;99.90
81902;DHT22;71369;50.796;3.290;2024-01-30T15:46:02;9.40;99.90
81902;DHT22;71369;50.796;3.290;2024-01-30T15:48:27;9.50;99.90
81902;DHT22;71369;50.796;3.290;2024-01-30T15:50:53;9.40;99.90
81902;DHT22;71369;50.796;3.290;2024-01-30T15:53:21;9.40;99.90
81902;DHT22;71369;50.796;3.290;2024-01-30T15:55:47;9.40;99.90
81902;DHT22;71369;50.796;3.290;2024-01-30T15:58:13;9.50;99.90
81902;DHT22;71369;50.796;3.290;2024-01-30T16:00:40;9.50;99.90
81902;DHT22;71369;50.796;3.290;2024-01-30T16:03:06;9.40;99.90
81902;DHT22;71369;50.796;3.290;2024-01-30T16:05:32;9.50;99.90
81902;DHT22;71369;50.796;3.290;2024-01-30T16:07:57;9.50;99.90
81902;DHT22;71369;50.796;3.290;2024-01-30T16:10:24;9.40;99.90
81902;DHT22;71369;50.796;3.290;2024-01-30T16:12:50;9.40;99.90
81902;DHT22;71369;50.796;3.290;2024-01-30T16:15:16;9.30;99.90
81902;DHT22;71369;50.796;3.290;2024-01-30T16:17:43;9.30;99.90
81902;DHT22;71369;50.796;3.290;2024-01-30T16:20:09;9.20;99.90
81902;DHT22;71369;50.796;3.290;2024-01-30T16:22:35;9.20;99.90
81902;DHT22;71369;50.796;3.290;2024-01-30T16:25:02;9.10;99.90
81902;DHT22;71369;50.796;3.290;2024-01-30T16:27:29;9.00;99.90
81902;DHT22;71369;50.796;3.290;2024-01-30T16:29:55;9.00;99.90
81902;DHT22;71369;50.796;3.290;2024-01-30T16:32:21;8.80;99.90
81902;DHT22;71369;50.796;3.290;2024-01-30T16:34:47;8.90;99.90
81902;DHT22;71369;50.796;3.290;2024-01-30T16:37:12;8.90;99.90
81902;DHT22;71369;50.796;3.290;2024-01-30T16:39:38;8.80;99.90
81902;DHT22;71369;50.796;3.290;2024-01-30T16:42:04;8.70;99.90
81902;DHT22;71369;50.796;3.290;2024-01-30T16:44:32;8.60;99.90
81902;DHT22;71369;50.796;3.290;2024-01-30T16:46:58;8.60;99.90
81902;DHT22;71369;50.796;3.290;2024-01-30T16:49:23;8.50;99.90
81902;DHT22;71369;50.796;3.290;2024-01-30T16:51:49;8.50;99.90
81902;DHT22;71369;50.796;3.290;2024-01-30T16:54:15;8.40;99.90
81902;DHT22;71369;50.796;3.290;2024-01-30T16:56:41;8.40;99.90
81902;DHT22;71369;50.796;3.290;2024-01-30T16:59:14;8.30;99.90
81902;DHT22;71369;50.796;3.290;2024-01-30T17:01:41;8.20;99.90
81902;DHT22;71369;50.796;3.290;2024-01-30T17:04:08;8.20;99.90
81902;DHT22;71369;50.796;3.290;2024-01-30T17:06:34;8.20;99.90
81902;DHT22;71369;50.796;3.290;2024-01-30T17:09:00;8.20;99.90
81902;DHT22;71369;50.796;3.290;2024-01-30T17:11:26;8.20;99.90
81902;DHT22;71369;50.796;3.290;2024-01-30T17:13:51;8.00;99.90
81902;DHT22;71369;50.796;3.290;2024-01-30T17:16:17;7.90;99.90
81902;DHT22;71369;50.796;3.290;2024-01-30T17:18:43;7.90;99.90
81902;DHT22;71369;50.796;3.290;2024-01-30T17:21:16;7.90;99.90
81902;DHT22;71369;50.796;3.290;2024-01-30T17:23:42;7.90;99.90
81902;DHT22;71369;50.796;3.290;2024-01-30T17:26:10;7.80;99.90
81902;DHT22;71369;50.796;3.290;2024-01-30T17:28:35;7.90;99.90
81902;DHT22;71369;50.796;3.290;2024-01-30T17:31:01;7.90;99.90
81902;DHT22;71369;50.796;3.290;2024-01-30T17:33:28;7.90;99.90
81902;DHT22;71369;50.796;3.290;2024-01-30T17:35:54;7.90;99.90
81902;DHT22;71369;50.796;3.290;2024-01-30T17:38:20;8.00;99.90
81902;DHT22;71369;50.796;3.290;2024-01-30T17:40:46;8.00;99.90
81902;DHT22;71369;50.796;3.290;2024-01-30T17:43:12;8.00;99.90
81902;DHT22;71369;50.796;3.290;2024-01-30T17:45:38;8.00;99.90
81902;DHT22;71369;50.796;3.290;2024-01-30T17:48:04;8.00;99.90
81902;DHT22;71369;50.796;3.290;2024-01-30T17:50:30;7.90;99.90
81902;DHT22;71369;50.796;3.290;2024-01-30T17:52:56;7.90;99.90
81902;DHT22;71369;50.796;3.290;2024-01-30T17:55:23;7.90;99.90
81902;DHT22;71369;50.796;3.290;2024-01-30T17:57:49;8.00;99.90
81902;DHT22;71369;50.796;3.290;2024-01-30T18:00:15;8.00;99.90
81902;DHT22;71369;50.796;3.290;2024-01-30T18:02:42;8.00;99.90
81902;DHT22;71369;50.796;3.290;2024-01-30T18:05:13;7.90;99.90
81902;DHT22;71369;50.796;3.290;2024-01-30T18:07:40;7.90;99.90
81902;DHT22;71369;50.796;3.290;2024-01-30T18:10:07;7.80;99.90
81902;DHT22;71369;50.796;3.290;2024-01-30T18:12:34;7.80;99.90
81902;DHT22;71369;50.796;3.290;2024-01-30T18:15:00;7.80;99.90
81902;DHT22;71369;50.796;3.290;2024-01-30T18:17:26;7.80;99.90
81902;DHT22;71369;50.796;3.290;2024-01-30T18:19:55;7.70;99.90
81902;DHT22;71369;50.796;3.290;2024-01-30T18:22:22;7.80;99.90
81902;DHT22;71369;50.796;3.290;2024-01-30T18:24:48;7.80;99.90
81902;DHT22;71369;50.796;3.290;2024-01-30T18:27:13;7.80;99.90
81902;DHT22;71369;50.796;3.290;2024-01-30T18:29:39;7.80;99.90
81902;DHT22;71369;50.796;3.290;2024-01-30T18:32:05;7.80;99.90
81902;DHT22;71369;50.796;3.290;2024-01-30T18:34:32;7.70;99.90
81902;DHT22;71369;50.796;3.290;2024-01-30T18:36:57;7.80;99.90
81902;DHT22;71369;50.796;3.290;2024-01-30T18:39:26;7.70;99.90
81902;DHT22;71369;50.796;3.290;2024-01-30T18:41:52;7.70;99.90
81902;DHT22;71369;50.796;3.290;2024-01-30T18:44:17;7.70;99.90
81902;DHT22;71369;50.796;3.290;2024-01-30T18:46:43;7.80;99.90
81902;DHT22;71369;50.796;3.290;2024-01-30T18:49:09;7.80;99.90
81902;DHT22;71369;50.796;3.290;2024-01-30T18:51:34;7.80;99.90
81902;DHT22;71369;50.796;3.290;2024-01-30T18:54:00;7.70;99.90
81902;DHT22;71369;50.796;3.290;2024-01-30T18:56:26;7.80;99.90
81902;DHT22;71369;50.796;3.290;2024-01-30T18:58:52;7.70;99.90
81902;DHT22;71369;50.796;3.290;2024-01-30T19:01:17;7.70;99.90
81902;DHT22;71369;50.796;3.290;2024-01-30T19:03:45;7.70;99.90
81902;DHT22;71369;50.796;3.290;2024-01-30T19:06:11;7.80;99.90
81902;DHT22;71369;50.796;3.290;2024-01-30T19:08:38;7.90;99.90
81902;DHT22;71369;50.796;3.290;2024-01-30T19:11:04;7.80;99.90
81902;DHT22;71369;50.796;3.290;2024-01-30T19:13:29;7.80;99.90
81902;DHT22;71369;50.796;3.290;2024-01-30T19:15:55;7.90;99.90
81902;DHT22;71369;50.796;3.290;2024-01-30T19:18:22;7.90;99.90
81902;DHT22;71369;50.796;3.290;2024-01-30T19:20:48;7.90;99.90
81902;DHT22;71369;50.796;3.290;2024-01-30T19:23:15;7.90;99.90
81902;DHT22;71369;50.796;3.290;2024-01-30T19:25:42;8.00;99.90
81902;DHT22;71369;50.796;3.290;2024-01-30T19:28:08;8.00;99.90
81902;DHT22;71369;50.796;3.290;2024-01-30T19:30:34;8.00;99.90
81902;DHT22;71369;50.796;3.290;2024-01-30T19:33:00;7.90;99.90
81902;DHT22;71369;50.796;3.290;2024-01-30T19:35:26;7.80;99.90
81902;DHT22;71369;50.796;3.290;2024-01-30T19:37:52;7.80;99.90
81902;DHT22;71369;50.796;3.290;2024-01-30T19:40:18;8.00;99.90
81902;DHT22;71369;50.796;3.290;2024-01-30T19:42:44;7.90;99.90
81902;DHT22;71369;50.796;3.290;2024-01-30T19:45:10;7.90;99.90
81902;DHT22;71369;50.796;3.290;2024-01-30T19:47:37;7.90;99.90
81902;DHT22;71369;50.796;3.290;2024-01-30T19:50:03;8.00;99.90
81902;DHT22;71369;50.796;3.290;2024-01-30T19:52:29;8.10;99.90
81902;DHT22;71369;50.796;3.290;2024-01-30T19:54:55;8.20;99.90
81902;DHT22;71369;50.796;3.290;2024-01-30T19:57:21;8.10;99.90
81902;DHT22;71369;50.796;3.290;2024-01-30T19:59:47;8.10;99.90
81902;DHT22;71369;50.796;3.290;2024-01-30T20:02:12;8.10;99.90
81902;DHT22;71369;50.796;3.290;2024-01-30T20:04:44;8.10;99.90
81902;DHT22;71369;50.796;3.290;2024-01-30T20:07:10;8.00;99.90
81902;DHT22;71369;50.796;3.290;2024-01-30T20:09:37;7.90;99.90
81902;DHT22;71369;50.796;3.290;2024-01-30T20:12:03;7.80;99.90
81902;DHT22;71369;50.796;3.290;2024-01-30T20:14:29;7.90;99.90
81902;DHT22;71369;50.796;3.290;2024-01-30T20:16:55;7.80;99.90
81902;DHT22;71369;50.796;3.290;2024-01-30T20:19:22;7.90;99.90
81902;DHT22;71369;50.796;3.290;2024-01-30T20:21:47;7.80;99.90
81902;DHT22;71369;50.796;3.290;2024-01-30T20:24:14;7.80;99.90
81902;DHT22;71369;50.796;3.290;2024-01-30T20:26:39;7.80;99.90
81902;DHT22;71369;50.796;3.290;2024-01-30T20:29:06;7.80;99.90
81902;DHT22;71369;50.796;3.290;2024-01-30T20:31:32;7.70;99.90
81902;DHT22;71369;50.796;3.290;2024-01-30T20:34:04;7.80;99.90
81902;DHT22;71369;50.796;3.290;2024-01-30T20:36:30;7.80;99.90
81902;DHT22;71369;50.796;3.290;2024-01-30T20:38:56;7.80;99.90
81902;DHT22;71369;50.796;3.290;2024-01-30T20:41:21;7.80;99.90
81902;DHT22;71369;50.796;3.290;2024-01-30T20:43:47;7.80;99.90
81902;DHT22;71369;50.796;3.290;2024-01-30T20:46:13;7.90;99.90
81902;DHT22;71369;50.796;3.290;2024-01-30T20:48:40;7.80;99.90
81902;DHT22;71369;50.796;3.290;2024-01-30T20:51:06;7.80;99.90
81902;DHT22;71369;50.796;3.290;2024-01-30T20:53:32;7.90;99.90
81902;DHT22;71369;50.796;3.290;2024-01-30T20:55:58;7.90;99.90
81902;DHT22;71369;50.796;3.290;2024-01-30T20:58:25;7.80;99.90
81902;DHT22;71369;50.796;3.290;2024-01-30T21:00:50;7.70;99.90
81902;DHT22;71369;50.796;3.290;2024-01-30T21:03:16;7.70;99.90
81902;DHT22;71369;50.796;3.290;2024-01-30T21:05:42;7.70;99.90
81902;DHT22;71369;50.796;3.290;2024-01-30T21:08:08;7.80;99.90
81902;DHT22;71369;50.796;3.290;2024-01-30T21:10:34;7.80;99.90
81902;DHT22;71369;50.796;3.290;2024-01-30T21:13:00;7.70;99.90
81902;DHT22;71369;50.796;3.290;2024-01-30T21:15:26;7.60;99.90
81902;DHT22;71369;50.796;3.290;2024-01-30T21:17:52;7.70;99.90
81902;DHT22;71369;50.796;3.290;2024-01-30T21:20:18;7.60;99.90
81902;DHT22;71369;50.796;3.290;2024-01-30T21:22:43;7.70;99.90
81902;DHT22;71369;50.796;3.290;2024-01-30T21:25:09;7.80;99.90
81902;DHT22;71369;50.796;3.290;2024-01-30T21:27:35;7.90;99.90
81902;DHT22;71369;50.796;3.290;2024-01-30T21:30:07;7.80;99.90
81902;DHT22;71369;50.796;3.290;2024-01-30T21:32:36;7.80;99.90
81902;DHT22;71369;50.796;3.290;2024-01-30T21:35:05;7.70;99.90
81902;DHT22;71369;50.796;3.290;2024-01-30T21:37:32;7.60;99.90
81902;DHT22;71369;50.796;3.290;2024-01-30T21:40:00;7.70;99.90
81902;DHT22;71369;50.796;3.290;2024-01-30T21:42:29;7.70;99.90
81902;DHT22;71369;50.796;3.290;2024-01-30T21:44:55;7.80;99.90
81902;DHT22;71369;50.796;3.290;2024-01-30T21:47:22;7.90;99.90
81902;DHT22;71369;50.796;3.290;2024-01-30T21:49:48;7.90;99.90
81902;DHT22;71369;50.796;3.290;2024-01-30T21:52:14;7.80;99.90
81902;DHT22;71369;50.796;3.290;2024-01-30T21:54:40;7.80;99.90
81902;DHT22;71369;50.796;3.290;2024-01-30T21:57:06;7.80;99.90
81902;DHT22;71369;50.796;3.290;2024-01-30T21:59:33;7.70;99.90
81902;DHT22;71369;50.796;3.290;2024-01-30T22:01:59;7.80;99.90
81902;DHT22;71369;50.796;3.290;2024-01-30T22:04:25;7.80;99.90
81902;DHT22;71369;50.796;3.290;2024-01-30T22:06:50;7.90;99.90
81902;DHT22;71369;50.796;3.290;2024-01-30T22:09:16;7.90;99.90
81902;DHT22;71369;50.796;3.290;2024-01-30T22:11:42;7.90;99.90
81902;DHT22;71369;50.796;3.290;2024-01-30T22:14:08;7.90;99.90
81902;DHT22;71369;50.796;3.290;2024-01-30T22:16:33;7.90;99.90
81902;DHT22;71369;50.796;3.290;2024-01-30T22:18:59;7.90;99.90
81902;DHT22;71369;50.796;3.290;2024-01-30T22:21:25;8.00;99.90
81902;DHT22;71369;50.796;3.290;2024-01-30T22:23:51;7.90;99.90
81902;DHT22;71369;50.796;3.290;2024-01-30T22:26:17;7.80;99.90
81902;DHT22;71369;50.796;3.290;2024-01-30T22:28:43;7.70;99.90
81902;DHT22;71369;50.796;3.290;2024-01-30T22:31:09;7.60;99.90
81902;DHT22;71369;50.796;3.290;2024-01-30T22:33:36;7.60;99.90
81902;DHT22;71369;50.796;3.290;2024-01-30T22:36:02;7.70;99.90
81902;DHT22;71369;50.796;3.290;2024-01-30T22:38:28;7.70;99.90
81902;DHT22;71369;50.796;3.290;2024-01-30T22:40:56;7.70;99.90
81902;DHT22;71369;50.796;3.290;2024-01-30T22:43:22;7.70;99.90
81902;DHT22;71369;50.796;3.290;2024-01-30T22:45:50;7.70;99.90
81902;DHT22;71369;50.796;3.290;2024-01-30T22:48:16;7.70;99.90
81902;DHT22;71369;50.796;3.290;2024-01-30T22:50:42;7.60;99.90
81902;DHT22;71369;50.796;3.290;2024-01-30T22:53:11;7.80;99.90